sensor_id;sensor_type;location;lat;lon;timestamp;P1;durP1;ratioP1;P2;durP2;ratioP2
42196;SDS011;27866;48.146;17.098;2024-03-23T00:52:13;20.90;;;9.07;;
42196;SDS011;27866;48.146;17.098;2024-03-23T00:56:25;18.63;;;8.45;;
42196;SDS011;27866;48.146;17.098;2024-03-23T01:00:36;14.23;;;9.38;;
42196;SDS011;27866;48.146;17.098;2024-03-23T01:04:48;15.88;;;9.00;;
42196;SDS011;27866;48.146;17.098;2024-03-23T01:09:00;15.43;;;8.65;;
42196;SDS011;27866;48.146;17.098;2024-03-23T01:13:11;18.30;;;9.45;;
42196;SDS011;27866;48.146;17.098;2024-03-23T01:17:23;14.10;;;9.05;;
42196;SDS011;27866;48.146;17.098;2024-03-23T01:21:34;15.60;;;8.75;;
42196;SDS011;27866;48.146;17.098;2024-03-23T01:25:52;16.90;;;9.68;;
42196;SDS011;27866;48.146;17.098;2024-03-23T01:30:05;17.15;;;9.27;;
42196;SDS011;27866;48.146;17.098;2024-03-23T01:34:18;14.63;;;9.45;;
42196;SDS011;27866;48.146;17.098;2024-03-23T01:38:31;16.33;;;9.40;;
42196;SDS011;27866;48.146;17.098;2024-03-23T01:42:42;19.38;;;9.82;;
42196;SDS011;27866;48.146;17.098;2024-03-23T01:47:06;16.00;;;9.75;;
42196;SDS011;27866;48.146;17.098;2024-03-23T01:51:17;19.73;;;9.98;;
42196;SDS011;27866;48.146;17.098;2024-03-23T01:55:29;20.05;;;10.50;;
42196;SDS011;27866;48.146;17.098;2024-03-23T01:59:42;16.85;;;10.48;;
42196;SDS011;27866;48.146;17.098;2024-03-23T02:03:54;16.13;;;10.27;;
42196;SDS011;27866;48.146;17.098;2024-03-23T02:08:06;16.02;;;9.52;;
42196;SDS011;27866;48.146;17.098;2024-03-23T02:12:18;15.20;;;10.07;;
42196;SDS011;27866;48.146;17.098;2024-03-23T02:16:30;15.30;;;9.30;;
42196;SDS011;27866;48.146;17.098;2024-03-23T02:20:42;16.63;;;9.80;;
42196;SDS011;27866;48.146;17.098;2024-03-23T02:24:53;15.80;;;8.88;;
42196;SDS011;27866;48.146;17.098;2024-03-23T02:29:05;14.27;;;9.00;;
42196;SDS011;27866;48.146;17.098;2024-03-23T02:33:17;15.13;;;9.30;;
42196;SDS011;27866;48.146;17.098;2024-03-23T02:37:29;15.05;;;9.20;;
42196;SDS011;27866;48.146;17.098;2024-03-23T02:41:40;21.40;;;10.05;;
42196;SDS011;27866;48.146;17.098;2024-03-23T02:45:52;16.23;;;9.82;;
42196;SDS011;27866;48.146;17.098;2024-03-23T02:50:04;16.95;;;10.00;;
42196;SDS011;27866;48.146;17.098;2024-03-23T02:54:16;19.25;;;10.43;;
42196;SDS011;27866;48.146;17.098;2024-03-23T02:58:27;19.52;;;11.13;;
42196;SDS011;27866;48.146;17.098;2024-03-23T03:02:39;27.88;;;13.27;;
42196;SDS011;27866;48.146;17.098;2024-03-23T03:06:50;25.08;;;13.82;;
42196;SDS011;27866;48.146;17.098;2024-03-23T03:11:02;26.80;;;13.50;;
42196;SDS011;27866;48.146;17.098;2024-03-23T03:15:14;23.67;;;12.80;;
42196;SDS011;27866;48.146;17.098;2024-03-23T03:19:26;22.35;;;12.95;;
42196;SDS011;27866;48.146;17.098;2024-03-23T03:23:38;29.25;;;16.58;;
42196;SDS011;27866;48.146;17.098;2024-03-23T03:27:49;32.90;;;17.13;;
42196;SDS011;27866;48.146;17.098;2024-03-23T03:32:02;26.42;;;16.27;;
42196;SDS011;27866;48.146;17.098;2024-03-23T03:36:14;32.03;;;16.98;;
42196;SDS011;27866;48.146;17.098;2024-03-23T03:40:25;28.08;;;13.90;;
42196;SDS011;27866;48.146;17.098;2024-03-23T03:44:37;21.30;;;12.07;;
42196;SDS011;27866;48.146;17.098;2024-03-23T03:48:50;23.05;;;12.90;;
42196;SDS011;27866;48.146;17.098;2024-03-23T03:53:01;24.20;;;13.40;;
42196;SDS011;27866;48.146;17.098;2024-03-23T03:57:13;24.30;;;13.85;;
42196;SDS011;27866;48.146;17.098;2024-03-23T04:01:25;24.08;;;14.50;;
42196;SDS011;27866;48.146;17.098;2024-03-23T04:05:36;27.30;;;15.68;;
42196;SDS011;27866;48.146;17.098;2024-03-23T04:09:48;27.30;;;15.93;;
42196;SDS011;27866;48.146;17.098;2024-03-23T04:14:00;25.70;;;14.82;;
42196;SDS011;27866;48.146;17.098;2024-03-23T04:18:12;26.10;;;15.38;;
42196;SDS011;27866;48.146;17.098;2024-03-23T04:22:24;21.05;;;13.05;;
42196;SDS011;27866;48.146;17.098;2024-03-23T04:26:42;18.90;;;11.65;;
42196;SDS011;27866;48.146;17.098;2024-03-23T04:30:54;21.38;;;11.73;;
42196;SDS011;27866;48.146;17.098;2024-03-23T04:35:06;25.85;;;12.55;;
42196;SDS011;27866;48.146;17.098;2024-03-23T04:39:21;22.25;;;12.02;;
42196;SDS011;27866;48.146;17.098;2024-03-23T04:43:32;19.38;;;12.30;;
42196;SDS011;27866;48.146;17.098;2024-03-23T04:47:44;22.65;;;12.23;;
42196;SDS011;27866;48.146;17.098;2024-03-23T04:51:56;18.48;;;12.70;;
42196;SDS011;27866;48.146;17.098;2024-03-23T04:56:07;20.98;;;12.40;;
42196;SDS011;27866;48.146;17.098;2024-03-23T05:00:20;20.95;;;13.13;;
42196;SDS011;27866;48.146;17.098;2024-03-23T05:04:31;22.55;;;12.80;;
42196;SDS011;27866;48.146;17.098;2024-03-23T05:08:43;19.48;;;12.38;;
42196;SDS011;27866;48.146;17.098;2024-03-23T05:12:56;22.60;;;13.05;;
42196;SDS011;27866;48.146;17.098;2024-03-23T05:17:07;21.58;;;12.38;;
42196;SDS011;27866;48.146;17.098;2024-03-23T05:21:19;20.13;;;12.52;;
42196;SDS011;27866;48.146;17.098;2024-03-23T05:25:31;23.15;;;13.23;;
42196;SDS011;27866;48.146;17.098;2024-03-23T05:29:42;21.08;;;12.85;;
42196;SDS011;27866;48.146;17.098;2024-03-23T05:33:54;21.92;;;13.85;;
42196;SDS011;27866;48.146;17.098;2024-03-23T05:38:06;22.13;;;12.98;;
42196;SDS011;27866;48.146;17.098;2024-03-23T05:42:17;26.70;;;14.10;;
42196;SDS011;27866;48.146;17.098;2024-03-23T05:46:29;28.23;;;17.75;;
42196;SDS011;27866;48.146;17.098;2024-03-23T05:50:41;24.30;;;14.93;;
42196;SDS011;27866;48.146;17.098;2024-03-23T05:54:53;27.58;;;16.77;;
42196;SDS011;27866;48.146;17.098;2024-03-23T05:59:04;28.10;;;16.33;;
42196;SDS011;27866;48.146;17.098;2024-03-23T06:03:17;28.77;;;16.25;;
42196;SDS011;27866;48.146;17.098;2024-03-23T06:07:28;31.73;;;16.83;;
42196;SDS011;27866;48.146;17.098;2024-03-23T06:11:42;25.97;;;16.20;;
42196;SDS011;27866;48.146;17.098;2024-03-23T06:15:53;28.65;;;17.05;;
42196;SDS011;27866;48.146;17.098;2024-03-23T06:20:05;28.25;;;17.25;;
42196;SDS011;27866;48.146;17.098;2024-03-23T06:24:17;32.95;;;18.33;;
42196;SDS011;27866;48.146;17.098;2024-03-23T06:28:29;33.92;;;18.23;;
42196;SDS011;27866;48.146;17.098;2024-03-23T06:32:40;27.90;;;17.05;;
42196;SDS011;27866;48.146;17.098;2024-03-23T06:36:53;28.27;;;16.15;;
42196;SDS011;27866;48.146;17.098;2024-03-23T06:41:05;27.67;;;16.75;;
42196;SDS011;27866;48.146;17.098;2024-03-23T06:45:17;29.90;;;16.70;;
42196;SDS011;27866;48.146;17.098;2024-03-23T06:49:33;26.45;;;16.20;;
42196;SDS011;27866;48.146;17.098;2024-03-23T06:53:45;31.45;;;17.35;;
42196;SDS011;27866;48.146;17.098;2024-03-23T06:57:57;26.95;;;16.50;;
42196;SDS011;27866;48.146;17.098;2024-03-23T07:02:09;28.90;;;15.70;;
42196;SDS011;27866;48.146;17.098;2024-03-23T07:06:20;24.65;;;16.15;;
42196;SDS011;27866;48.146;17.098;2024-03-23T07:10:32;28.73;;;16.35;;
42196;SDS011;27866;48.146;17.098;2024-03-23T07:14:43;26.88;;;17.08;;
42196;SDS011;27866;48.146;17.098;2024-03-23T07:18:55;28.90;;;17.17;;
42196;SDS011;27866;48.146;17.098;2024-03-23T07:23:07;27.83;;;16.92;;
42196;SDS011;27866;48.146;17.098;2024-03-23T07:27:19;24.80;;;16.42;;
42196;SDS011;27866;48.146;17.098;2024-03-23T07:31:30;28.33;;;16.98;;
42196;SDS011;27866;48.146;17.098;2024-03-23T07:35:42;26.83;;;16.33;;
42196;SDS011;27866;48.146;17.098;2024-03-23T07:39:55;29.20;;;17.08;;
42196;SDS011;27866;48.146;17.098;2024-03-23T07:44:07;25.15;;;15.77;;
42196;SDS011;27866;48.146;17.098;2024-03-23T07:48:20;23.98;;;15.13;;
42196;SDS011;27866;48.146;17.098;2024-03-23T07:52:35;27.60;;;16.27;;
42196;SDS011;27866;48.146;17.098;2024-03-23T07:56:47;24.17;;;14.63;;
42196;SDS011;27866;48.146;17.098;2024-03-23T08:01:05;24.33;;;13.80;;
42196;SDS011;27866;48.146;17.098;2024-03-23T08:05:25;21.00;;;13.82;;
42196;SDS011;27866;48.146;17.098;2024-03-23T08:09:37;18.98;;;13.27;;
42196;SDS011;27866;48.146;17.098;2024-03-23T08:13:49;19.55;;;13.52;;
42196;SDS011;27866;48.146;17.098;2024-03-23T08:18:01;21.73;;;14.32;;
42196;SDS011;27866;48.146;17.098;2024-03-23T08:22:13;21.98;;;12.40;;
42196;SDS011;27866;48.146;17.098;2024-03-23T08:26:24;20.60;;;13.40;;
42196;SDS011;27866;48.146;17.098;2024-03-23T08:30:36;22.05;;;12.13;;
42196;SDS011;27866;48.146;17.098;2024-03-23T08:34:48;22.40;;;13.60;;
42196;SDS011;27866;48.146;17.098;2024-03-23T08:38:59;20.55;;;12.93;;
42196;SDS011;27866;48.146;17.098;2024-03-23T08:43:11;19.65;;;12.18;;
42196;SDS011;27866;48.146;17.098;2024-03-23T08:47:22;21.42;;;13.93;;
42196;SDS011;27866;48.146;17.098;2024-03-23T08:51:34;22.52;;;14.13;;
42196;SDS011;27866;48.146;17.098;2024-03-23T08:55:52;23.23;;;14.05;;
42196;SDS011;27866;48.146;17.098;2024-03-23T09:00:05;20.42;;;12.27;;
42196;SDS011;27866;48.146;17.098;2024-03-23T09:04:19;15.90;;;11.35;;
42196;SDS011;27866;48.146;17.098;2024-03-23T09:08:32;16.67;;;12.05;;
42196;SDS011;27866;48.146;17.098;2024-03-23T09:12:44;14.87;;;10.57;;
42196;SDS011;27866;48.146;17.098;2024-03-23T09:16:56;14.98;;;10.50;;
42196;SDS011;27866;48.146;17.098;2024-03-23T09:21:11;13.88;;;10.40;;
42196;SDS011;27866;48.146;17.098;2024-03-23T09:25:25;14.38;;;9.73;;
42196;SDS011;27866;48.146;17.098;2024-03-23T09:29:37;14.65;;;9.15;;
42196;SDS011;27866;48.146;17.098;2024-03-23T09:33:49;12.63;;;9.13;;
42196;SDS011;27866;48.146;17.098;2024-03-23T09:38:01;9.90;;;8.82;;
42196;SDS011;27866;48.146;17.098;2024-03-23T09:42:13;13.40;;;7.78;;
42196;SDS011;27866;48.146;17.098;2024-03-23T09:46:25;11.57;;;8.20;;
42196;SDS011;27866;48.146;17.098;2024-03-23T09:50:39;10.85;;;7.72;;
42196;SDS011;27866;48.146;17.098;2024-03-23T09:54:51;9.50;;;7.70;;
42196;SDS011;27866;48.146;17.098;2024-03-23T09:59:03;8.57;;;7.63;;
42196;SDS011;27866;48.146;17.098;2024-03-23T10:03:17;11.05;;;7.70;;
42196;SDS011;27866;48.146;17.098;2024-03-23T10:07:28;11.05;;;7.43;;
42196;SDS011;27866;48.146;17.098;2024-03-23T10:11:40;13.90;;;7.10;;
42196;SDS011;27866;48.146;17.098;2024-03-23T10:15:58;8.95;;;6.60;;
42196;SDS011;27866;48.146;17.098;2024-03-23T10:20:10;9.63;;;6.95;;
42196;SDS011;27866;48.146;17.098;2024-03-23T10:24:22;8.68;;;6.63;;
42196;SDS011;27866;48.146;17.098;2024-03-23T10:32:46;8.77;;;6.78;;
42196;SDS011;27866;48.146;17.098;2024-03-23T10:37:01;9.73;;;6.43;;
42196;SDS011;27866;48.146;17.098;2024-03-23T10:41:14;10.88;;;6.93;;
42196;SDS011;27866;48.146;17.098;2024-03-23T10:45:25;9.53;;;6.33;;
42196;SDS011;27866;48.146;17.098;2024-03-23T10:49:38;9.57;;;6.77;;
42196;SDS011;27866;48.146;17.098;2024-03-23T10:53:49;10.88;;;6.90;;
42196;SDS011;27866;48.146;17.098;2024-03-23T10:58:03;12.57;;;7.55;;
42196;SDS011;27866;48.146;17.098;2024-03-23T11:02:19;11.80;;;7.35;;
42196;SDS011;27866;48.146;17.098;2024-03-23T11:10:47;10.85;;;7.00;;
42196;SDS011;27866;48.146;17.098;2024-03-23T11:15:06;12.20;;;6.90;;
42196;SDS011;27866;48.146;17.098;2024-03-23T11:23:47;14.43;;;6.20;;
42196;SDS011;27866;48.146;17.098;2024-03-23T11:28:11;12.23;;;6.55;;
42196;SDS011;27866;48.146;17.098;2024-03-23T11:32:23;11.18;;;7.38;;
42196;SDS011;27866;48.146;17.098;2024-03-23T11:36:35;10.10;;;7.43;;
42196;SDS011;27866;48.146;17.098;2024-03-23T11:40:50;10.48;;;6.38;;
42196;SDS011;27866;48.146;17.098;2024-03-23T11:45:07;7.05;;;5.63;;
42196;SDS011;27866;48.146;17.098;2024-03-23T11:49:20;7.03;;;5.75;;
42196;SDS011;27866;48.146;17.098;2024-03-23T11:53:35;7.03;;;5.18;;
42196;SDS011;27866;48.146;17.098;2024-03-23T11:57:46;7.07;;;5.43;;
42196;SDS011;27866;48.146;17.098;2024-03-23T12:01:59;6.95;;;4.82;;
42196;SDS011;27866;48.146;17.098;2024-03-23T12:06:19;7.60;;;4.90;;
42196;SDS011;27866;48.146;17.098;2024-03-23T12:10:31;6.95;;;5.05;;
42196;SDS011;27866;48.146;17.098;2024-03-23T12:14:44;6.68;;;5.63;;
42196;SDS011;27866;48.146;17.098;2024-03-23T12:18:56;6.43;;;5.10;;
42196;SDS011;27866;48.146;17.098;2024-03-23T12:23:16;6.13;;;5.05;;
42196;SDS011;27866;48.146;17.098;2024-03-23T12:27:28;7.38;;;5.13;;
42196;SDS011;27866;48.146;17.098;2024-03-23T12:31:40;5.85;;;4.78;;
42196;SDS011;27866;48.146;17.098;2024-03-23T12:35:52;10.85;;;4.97;;
42196;SDS011;27866;48.146;17.098;2024-03-23T12:40:04;9.70;;;5.00;;
42196;SDS011;27866;48.146;17.098;2024-03-23T12:44:17;5.57;;;4.22;;
42196;SDS011;27866;48.146;17.098;2024-03-23T12:48:29;6.88;;;4.43;;
42196;SDS011;27866;48.146;17.098;2024-03-23T12:52:42;7.85;;;4.57;;
42196;SDS011;27866;48.146;17.098;2024-03-23T12:56:53;10.65;;;4.18;;
42196;SDS011;27866;48.146;17.098;2024-03-23T13:01:06;7.22;;;4.63;;
42196;SDS011;27866;48.146;17.098;2024-03-23T13:09:30;5.25;;;3.88;;
42196;SDS011;27866;48.146;17.098;2024-03-23T13:13:41;7.65;;;3.72;;
42196;SDS011;27866;48.146;17.098;2024-03-23T13:17:53;5.20;;;3.50;;
42196;SDS011;27866;48.146;17.098;2024-03-23T13:22:05;5.30;;;3.15;;
42196;SDS011;27866;48.146;17.098;2024-03-23T13:26:17;4.28;;;3.40;;
42196;SDS011;27866;48.146;17.098;2024-03-23T13:30:29;8.38;;;3.30;;
42196;SDS011;27866;48.146;17.098;2024-03-23T13:34:40;4.13;;;2.97;;
42196;SDS011;27866;48.146;17.098;2024-03-23T13:43:03;4.22;;;2.83;;
42196;SDS011;27866;48.146;17.098;2024-03-23T13:47:15;3.83;;;2.90;;
42196;SDS011;27866;48.146;17.098;2024-03-23T13:51:27;9.02;;;3.28;;
42196;SDS011;27866;48.146;17.098;2024-03-23T13:55:45;3.53;;;2.40;;
42196;SDS011;27866;48.146;17.098;2024-03-23T14:00:00;38.50;;;3.08;;
42196;SDS011;27866;48.146;17.098;2024-03-23T14:04:23;18.70;;;2.70;;
42196;SDS011;27866;48.146;17.098;2024-03-23T14:08:36;8.98;;;1.48;;
42196;SDS011;27866;48.146;17.098;2024-03-23T14:12:52;3.80;;;1.17;;
42196;SDS011;27866;48.146;17.098;2024-03-23T14:17:04;4.70;;;1.50;;
42196;SDS011;27866;48.146;17.098;2024-03-23T14:21:15;2.80;;;1.20;;
42196;SDS011;27866;48.146;17.098;2024-03-23T14:25:27;4.43;;;1.25;;
42196;SDS011;27866;48.146;17.098;2024-03-23T14:29:39;4.18;;;1.15;;
42196;SDS011;27866;48.146;17.098;2024-03-23T14:33:51;6.30;;;1.10;;
42196;SDS011;27866;48.146;17.098;2024-03-23T14:38:03;2.80;;;1.00;;
42196;SDS011;27866;48.146;17.098;2024-03-23T14:42:14;5.63;;;1.20;;
42196;SDS011;27866;48.146;17.098;2024-03-23T14:46:26;1.90;;;1.10;;
42196;SDS011;27866;48.146;17.098;2024-03-23T14:50:38;2.80;;;0.98;;
42196;SDS011;27866;48.146;17.098;2024-03-23T14:54:50;2.03;;;0.90;;
42196;SDS011;27866;48.146;17.098;2024-03-23T14:59:02;3.17;;;1.05;;
42196;SDS011;27866;48.146;17.098;2024-03-23T15:03:13;3.95;;;1.10;;
42196;SDS011;27866;48.146;17.098;2024-03-23T15:07:26;4.25;;;1.27;;
42196;SDS011;27866;48.146;17.098;2024-03-23T15:11:38;1.77;;;1.30;;
42196;SDS011;27866;48.146;17.098;2024-03-23T15:15:50;7.40;;;1.20;;
42196;SDS011;27866;48.146;17.098;2024-03-23T15:20:02;3.20;;;1.17;;
42196;SDS011;27866;48.146;17.098;2024-03-23T15:24:16;4.30;;;1.25;;
42196;SDS011;27866;48.146;17.098;2024-03-23T15:28:28;2.13;;;1.30;;
42196;SDS011;27866;48.146;17.098;2024-03-23T15:33:13;2.90;;;1.08;;
42196;SDS011;27866;48.146;17.098;2024-03-23T15:37:24;3.15;;;1.45;;
42196;SDS011;27866;48.146;17.098;2024-03-23T15:41:36;2.15;;;1.40;;
42196;SDS011;27866;48.146;17.098;2024-03-23T15:45:57;3.70;;;1.75;;
42196;SDS011;27866;48.146;17.098;2024-03-23T15:50:10;2.67;;;1.60;;
42196;SDS011;27866;48.146;17.098;2024-03-23T15:54:22;2.03;;;1.48;;
42196;SDS011;27866;48.146;17.098;2024-03-23T15:58:34;2.10;;;1.10;;
42196;SDS011;27866;48.146;17.098;2024-03-23T16:02:46;1.42;;;1.30;;
42196;SDS011;27866;48.146;17.098;2024-03-23T16:06:58;3.53;;;1.30;;
42196;SDS011;27866;48.146;17.098;2024-03-23T16:11:10;2.20;;;1.30;;
42196;SDS011;27866;48.146;17.098;2024-03-23T16:15:22;2.67;;;1.15;;
42196;SDS011;27866;48.146;17.098;2024-03-23T16:19:33;3.78;;;1.30;;
42196;SDS011;27866;48.146;17.098;2024-03-23T16:23:45;4.45;;;1.30;;
42196;SDS011;27866;48.146;17.098;2024-03-23T16:27:57;2.40;;;1.25;;
42196;SDS011;27866;48.146;17.098;2024-03-23T16:32:08;1.90;;;1.17;;
42196;SDS011;27866;48.146;17.098;2024-03-23T16:36:20;1.52;;;1.02;;
42196;SDS011;27866;48.146;17.098;2024-03-23T16:40:32;2.38;;;1.20;;
42196;SDS011;27866;48.146;17.098;2024-03-23T16:44:45;1.33;;;1.08;;
42196;SDS011;27866;48.146;17.098;2024-03-23T16:48:56;1.63;;;1.30;;
42196;SDS011;27866;48.146;17.098;2024-03-23T16:53:08;2.30;;;1.10;;
42196;SDS011;27866;48.146;17.098;2024-03-23T16:57:20;1.15;;;0.95;;
42196;SDS011;27866;48.146;17.098;2024-03-23T17:01:31;1.40;;;1.15;;
42196;SDS011;27866;48.146;17.098;2024-03-23T17:05:43;1.15;;;1.02;;
42196;SDS011;27866;48.146;17.098;2024-03-23T17:09:55;1.40;;;1.10;;
42196;SDS011;27866;48.146;17.098;2024-03-23T17:14:06;1.13;;;0.93;;
42196;SDS011;27866;48.146;17.098;2024-03-23T17:18:18;1.95;;;1.20;;
42196;SDS011;27866;48.146;17.098;2024-03-23T17:22:30;2.70;;;1.30;;
42196;SDS011;27866;48.146;17.098;2024-03-23T17:26:42;3.85;;;1.40;;
42196;SDS011;27866;48.146;17.098;2024-03-23T17:30:53;1.83;;;1.30;;
42196;SDS011;27866;48.146;17.098;2024-03-23T17:35:05;3.05;;;1.83;;
42196;SDS011;27866;48.146;17.098;2024-03-23T17:39:17;1.60;;;1.17;;
42196;SDS011;27866;48.146;17.098;2024-03-23T17:43:29;3.83;;;1.40;;
42196;SDS011;27866;48.146;17.098;2024-03-23T17:47:41;2.45;;;1.38;;
42196;SDS011;27866;48.146;17.098;2024-03-23T17:51:53;1.45;;;1.10;;
42196;SDS011;27866;48.146;17.098;2024-03-23T17:56:05;1.77;;;1.27;;
42196;SDS011;27866;48.146;17.098;2024-03-23T18:00:17;1.52;;;1.20;;
42196;SDS011;27866;48.146;17.098;2024-03-23T18:04:30;1.88;;;1.20;;
42196;SDS011;27866;48.146;17.098;2024-03-23T18:08:42;2.60;;;1.20;;
42196;SDS011;27866;48.146;17.098;2024-03-23T18:12:53;1.60;;;1.20;;
42196;SDS011;27866;48.146;17.098;2024-03-23T18:17:05;1.20;;;1.10;;
42196;SDS011;27866;48.146;17.098;2024-03-23T18:21:17;4.20;;;1.08;;
42196;SDS011;27866;48.146;17.098;2024-03-23T18:25:30;1.60;;;1.25;;
42196;SDS011;27866;48.146;17.098;2024-03-23T18:29:42;1.75;;;1.20;;
42196;SDS011;27866;48.146;17.098;2024-03-23T18:33:54;1.92;;;1.23;;
42196;SDS011;27866;48.146;17.098;2024-03-23T18:38:07;3.00;;;1.30;;
42196;SDS011;27866;48.146;17.098;2024-03-23T18:42:22;2.65;;;1.10;;
42196;SDS011;27866;48.146;17.098;2024-03-23T18:46:34;2.83;;;1.20;;
42196;SDS011;27866;48.146;17.098;2024-03-23T18:50:46;1.70;;;1.10;;
42196;SDS011;27866;48.146;17.098;2024-03-23T18:54:57;2.13;;;1.35;;
42196;SDS011;27866;48.146;17.098;2024-03-23T18:59:09;1.25;;;1.00;;
42196;SDS011;27866;48.146;17.098;2024-03-23T19:03:21;2.55;;;1.60;;
42196;SDS011;27866;48.146;17.098;2024-03-23T19:07:36;2.17;;;1.50;;
42196;SDS011;27866;48.146;17.098;2024-03-23T19:11:48;2.35;;;1.30;;
42196;SDS011;27866;48.146;17.098;2024-03-23T19:16:00;1.75;;;1.40;;
42196;SDS011;27866;48.146;17.098;2024-03-23T19:20:13;2.08;;;1.50;;
42196;SDS011;27866;48.146;17.098;2024-03-23T19:24:24;2.00;;;1.50;;
42196;SDS011;27866;48.146;17.098;2024-03-23T19:28:36;4.40;;;1.80;;
42196;SDS011;27866;48.146;17.098;2024-03-23T19:32:48;4.05;;;1.55;;
42196;SDS011;27866;48.146;17.098;2024-03-23T19:37:00;3.25;;;1.25;;
42196;SDS011;27866;48.146;17.098;2024-03-23T19:41:11;2.42;;;1.40;;
42196;SDS011;27866;48.146;17.098;2024-03-23T19:45:23;7.70;;;3.13;;
42196;SDS011;27866;48.146;17.098;2024-03-23T19:49:35;2.10;;;1.50;;
42196;SDS011;27866;48.146;17.098;2024-03-23T19:53:50;2.83;;;1.40;;
42196;SDS011;27866;48.146;17.098;2024-03-23T19:58:01;2.28;;;1.50;;
42196;SDS011;27866;48.146;17.098;2024-03-23T20:02:14;3.22;;;1.50;;
42196;SDS011;27866;48.146;17.098;2024-03-23T20:06:26;2.75;;;1.40;;
42196;SDS011;27866;48.146;17.098;2024-03-23T20:10:37;2.53;;;1.20;;
42196;SDS011;27866;48.146;17.098;2024-03-23T20:14:57;2.92;;;1.50;;
42196;SDS011;27866;48.146;17.098;2024-03-23T20:19:09;3.33;;;1.70;;
42196;SDS011;27866;48.146;17.098;2024-03-23T20:23:21;2.42;;;1.45;;
42196;SDS011;27866;48.146;17.098;2024-03-23T20:27:33;2.13;;;1.48;;
42196;SDS011;27866;48.146;17.098;2024-03-23T20:31:44;2.25;;;1.50;;
42196;SDS011;27866;48.146;17.098;2024-03-23T20:35:56;3.35;;;1.90;;
42196;SDS011;27866;48.146;17.098;2024-03-23T20:40:09;3.08;;;2.13;;
42196;SDS011;27866;48.146;17.098;2024-03-23T20:44:21;4.93;;;2.45;;
42196;SDS011;27866;48.146;17.098;2024-03-23T20:48:33;2.67;;;2.15;;
42196;SDS011;27866;48.146;17.098;2024-03-23T20:52:47;3.22;;;2.15;;
42196;SDS011;27866;48.146;17.098;2024-03-23T20:56:59;3.00;;;2.30;;
42196;SDS011;27866;48.146;17.098;2024-03-23T21:01:10;3.75;;;2.20;;
42196;SDS011;27866;48.146;17.098;2024-03-23T21:05:22;3.30;;;2.47;;
42196;SDS011;27866;48.146;17.098;2024-03-23T21:09:34;4.43;;;3.00;;
42196;SDS011;27866;48.146;17.098;2024-03-23T21:13:45;2.92;;;2.35;;
42196;SDS011;27866;48.146;17.098;2024-03-23T21:17:58;3.63;;;2.45;;
42196;SDS011;27866;48.146;17.098;2024-03-23T21:22:11;4.53;;;2.30;;
42196;SDS011;27866;48.146;17.098;2024-03-23T21:26:22;3.55;;;2.47;;
42196;SDS011;27866;48.146;17.098;2024-03-23T21:30:35;2.97;;;2.10;;
42196;SDS011;27866;48.146;17.098;2024-03-23T21:34:47;4.38;;;2.10;;
42196;SDS011;27866;48.146;17.098;2024-03-23T21:39:01;5.18;;;2.20;;
42196;SDS011;27866;48.146;17.098;2024-03-23T21:43:15;3.65;;;2.20;;
42196;SDS011;27866;48.146;17.098;2024-03-23T21:47:27;3.50;;;2.47;;
42196;SDS011;27866;48.146;17.098;2024-03-23T21:51:38;3.33;;;2.22;;
42196;SDS011;27866;48.146;17.098;2024-03-23T21:55:50;3.38;;;2.17;;
42196;SDS011;27866;48.146;17.098;2024-03-23T22:00:02;3.42;;;1.85;;
42196;SDS011;27866;48.146;17.098;2024-03-23T22:04:23;3.63;;;2.33;;
42196;SDS011;27866;48.146;17.098;2024-03-23T22:08:34;3.22;;;2.00;;
42196;SDS011;27866;48.146;17.098;2024-03-23T22:12:46;3.30;;;2.00;;
42196;SDS011;27866;48.146;17.098;2024-03-23T22:16:58;3.75;;;2.00;;
42196;SDS011;27866;48.146;17.098;2024-03-23T22:21:10;3.70;;;1.88;;
42196;SDS011;27866;48.146;17.098;2024-03-23T22:25:23;4.45;;;1.88;;
42196;SDS011;27866;48.146;17.098;2024-03-23T22:29:35;2.67;;;1.80;;
42196;SDS011;27866;48.146;17.098;2024-03-23T22:33:47;6.85;;;1.80;;
42196;SDS011;27866;48.146;17.098;2024-03-23T22:37:58;5.90;;;1.90;;
42196;SDS011;27866;48.146;17.098;2024-03-23T22:42:12;5.45;;;2.15;;
42196;SDS011;27866;48.146;17.098;2024-03-23T22:46:24;3.40;;;1.90;;
42196;SDS011;27866;48.146;17.098;2024-03-23T22:50:42;4.70;;;2.08;;
42196;SDS011;27866;48.146;17.098;2024-03-23T22:54:54;3.40;;;1.98;;
42196;SDS011;27866;48.146;17.098;2024-03-23T22:59:07;3.35;;;1.92;;
42196;SDS011;27866;48.146;17.098;2024-03-23T23:03:19;2.72;;;2.17;;
42196;SDS011;27866;48.146;17.098;2024-03-23T23:07:32;3.17;;;2.10;;
42196;SDS011;27866;48.146;17.098;2024-03-23T23:11:44;4.35;;;2.35;;
42196;SDS011;27866;48.146;17.098;2024-03-23T23:15:56;4.00;;;2.17;;
42196;SDS011;27866;48.146;17.098;2024-03-23T23:20:08;4.10;;;2.40;;
42196;SDS011;27866;48.146;17.098;2024-03-23T23:24:23;4.90;;;2.65;;
42196;SDS011;27866;48.146;17.098;2024-03-23T23:28:35;5.78;;;3.08;;
42196;SDS011;27866;48.146;17.098;2024-03-23T23:32:47;5.90;;;2.90;;
42196;SDS011;27866;48.146;17.098;2024-03-23T23:36:58;5.57;;;2.92;;
42196;SDS011;27866;48.146;17.098;2024-03-23T23:41:10;6.43;;;3.53;;
42196;SDS011;27866;48.146;17.098;2024-03-23T23:45:22;4.90;;;3.13;;
42196;SDS011;27866;48.146;17.098;2024-03-23T23:49:33;5.20;;;2.90;;
42196;SDS011;27866;48.146;17.098;2024-03-23T23:53:45;5.93;;;3.30;;
42196;SDS011;27866;48.146;17.098;2024-03-23T23:57:57;7.82;;;3.58;;
